createdAt,value
2018-12-13T00:00:39.841Z,1.30
2018-12-13T00:03:08.081Z,1.20
2018-12-13T00:05:36.198Z,1.10
2018-12-13T00:08:04.306Z,1.00
2018-12-13T00:10:32.446Z,0.90
2018-12-13T00:13:00.553Z,0.80
2018-12-13T00:15:30.693Z,0.70
2018-12-13T00:17:58.798Z,0.70
2018-12-13T00:20:26.944Z,0.60
2018-12-13T00:22:55.077Z,0.60
2018-12-13T00:25:23.219Z,0.60
2018-12-13T00:27:51.332Z,0.50
2018-12-13T00:30:19.603Z,0.50
2018-12-13T00:32:47.770Z,0.40
2018-12-13T00:35:15.868Z,0.30
2018-12-13T00:37:43.976Z,0.50
2018-12-13T00:40:12.155Z,0.40
2018-12-13T00:42:40.378Z,0.30
2018-12-13T00:45:08.578Z,0.20
2018-12-13T00:47:36.696Z,0.20
2018-12-13T00:50:05.061Z,0.10
2018-12-13T00:52:33.178Z,0.00
2018-12-13T00:55:01.296Z,0.00
2018-12-13T00:57:29.451Z,0.00
2018-12-13T00:59:57.575Z,0.00
2018-12-13T01:02:25.714Z,0.00
2018-12-13T01:04:53.823Z,0.10
2018-12-13T01:07:22.032Z,0.20
2018-12-13T01:09:50.287Z,0.30
2018-12-13T01:12:18.522Z,0.40
2018-12-13T01:14:46.653Z,0.60
2018-12-13T01:17:14.766Z,0.70
2018-12-13T01:19:42.925Z,0.80
2018-12-13T01:22:11.034Z,0.90
2018-12-13T01:24:39.171Z,0.90
2018-12-13T01:27:07.285Z,0.90
2018-12-13T01:29:35.462Z,1.00
2018-12-13T01:32:03.575Z,1.00
2018-12-13T01:34:31.687Z,1.00
2018-12-13T01:36:59.861Z,1.10
2018-12-13T01:39:27.970Z,1.10
2018-12-13T01:41:56.078Z,1.10
2018-12-13T01:44:24.218Z,1.10
2018-12-13T01:46:52.373Z,1.20
2018-12-13T01:49:20.505Z,1.20
2018-12-13T01:51:48.638Z,1.30
2018-12-13T01:54:16.802Z,1.30
2018-12-13T01:56:44.914Z,1.30
2018-12-13T01:59:13.026Z,1.30
2018-12-13T02:01:41.172Z,1.30
2018-12-13T02:04:09.433Z,1.30
2018-12-13T02:06:37.557Z,1.40
2018-12-13T02:09:06.227Z,1.30
2018-12-13T02:11:34.353Z,1.20
2018-12-13T02:14:02.466Z,1.20
2018-12-13T02:16:30.606Z,1.10
2018-12-13T02:18:58.726Z,1.00
2018-12-13T02:21:26.874Z,0.90
2018-12-13T02:23:55.069Z,0.80
2018-12-13T02:26:23.266Z,0.70
2018-12-13T02:28:51.392Z,0.70
2018-12-13T02:31:19.625Z,0.80
2018-12-13T02:33:47.733Z,0.70
2018-12-13T02:36:15.852Z,0.70
2018-12-13T02:38:43.990Z,0.70
2018-12-13T02:41:12.100Z,0.70
2018-12-13T02:43:40.233Z,0.70
2018-12-13T02:46:08.337Z,0.70
2018-12-13T02:48:36.507Z,0.70
2018-12-13T02:51:04.641Z,0.60
2018-12-13T02:53:32.975Z,0.60
2018-12-13T02:56:01.162Z,0.60
2018-12-13T02:58:29.266Z,0.60
2018-12-13T03:00:57.421Z,0.60
2018-12-13T03:03:25.525Z,0.50
2018-12-13T03:05:53.794Z,0.50
2018-12-13T03:08:21.902Z,0.40
2018-12-13T03:10:50.042Z,0.30
2018-12-13T03:13:18.209Z,0.30
2018-12-13T03:15:46.462Z,0.30
2018-12-13T03:18:14.602Z,0.20
2018-12-13T03:20:42.745Z,0.20
2018-12-13T03:23:10.885Z,0.10
2018-12-13T03:25:39.030Z,0.10
2018-12-13T03:28:07.153Z,0.10
2018-12-13T03:30:35.410Z,0.00
2018-12-13T03:33:03.519Z,0.00
2018-12-13T03:35:31.630Z,-0.10
2018-12-13T03:37:59.768Z,0.00
2018-12-13T03:40:27.919Z,-0.10
2018-12-13T03:42:56.087Z,-0.10
2018-12-13T03:45:24.234Z,-0.20
2018-12-13T03:47:52.383Z,-0.20
2018-12-13T03:50:20.545Z,-0.20
2018-12-13T03:52:48.690Z,-0.20
2018-12-13T03:55:16.807Z,-0.20
2018-12-13T03:57:44.950Z,-0.20
2018-12-13T04:00:13.114Z,-0.20
2018-12-13T04:02:41.280Z,-0.10
2018-12-13T04:05:09.442Z,-0.10
2018-12-13T04:07:37.572Z,0.00
2018-12-13T04:10:05.811Z,0.00
2018-12-13T04:12:33.940Z,0.00
2018-12-13T04:15:02.074Z,0.10
2018-12-13T04:17:30.188Z,0.10
2018-12-13T04:19:58.356Z,0.10
2018-12-13T04:22:26.485Z,0.10
2018-12-13T04:24:54.618Z,0.10
2018-12-13T04:27:22.725Z,0.20
2018-12-13T04:29:50.881Z,0.20
2018-12-13T04:32:19.022Z,0.10
2018-12-13T04:34:47.151Z,0.20
2018-12-13T04:37:15.294Z,0.10
2018-12-13T04:39:43.462Z,0.20
2018-12-13T04:42:11.597Z,0.10
2018-12-13T04:44:39.794Z,0.10
2018-12-13T04:47:07.907Z,0.00
2018-12-13T04:49:36.051Z,0.00
2018-12-13T04:52:04.278Z,-0.10
2018-12-13T04:54:32.390Z,-0.10
2018-12-13T04:57:00.553Z,-0.20
2018-12-13T04:59:28.703Z,-0.20
2018-12-13T05:01:56.831Z,-0.20
2018-12-13T05:04:24.995Z,-0.30
2018-12-13T05:06:53.120Z,-0.30
2018-12-13T05:09:21.287Z,-0.40
2018-12-13T05:11:49.396Z,-0.30
2018-12-13T05:14:17.542Z,-0.30
2018-12-13T05:16:45.788Z,-0.30
2018-12-13T05:19:13.910Z,-0.30
2018-12-13T05:21:42.035Z,-0.30
2018-12-13T05:24:10.209Z,-0.20
2018-12-13T05:26:38.346Z,-0.20
2018-12-13T05:29:06.474Z,-0.20
2018-12-13T05:31:34.610Z,-0.10
2018-12-13T05:34:02.745Z,0.00
2018-12-13T05:36:30.866Z,0.10
2018-12-13T05:38:59.106Z,0.20
2018-12-13T05:41:27.251Z,0.30
2018-12-13T05:43:55.361Z,0.40
2018-12-13T05:46:23.694Z,0.50
2018-12-13T05:48:51.889Z,0.60
2018-12-13T05:51:19.993Z,0.60
2018-12-13T05:53:48.132Z,0.70
2018-12-13T05:56:16.308Z,0.70
2018-12-13T05:58:44.420Z,0.70
2018-12-13T06:01:12.535Z,0.80
2018-12-13T06:03:40.697Z,0.80
2018-12-13T06:06:08.805Z,0.80
2018-12-13T06:08:36.949Z,0.90
2018-12-13T06:11:05.090Z,0.90
2018-12-13T06:13:33.201Z,1.00
2018-12-13T06:16:01.348Z,1.00
2018-12-13T06:18:29.538Z,1.10
2018-12-13T06:20:57.656Z,1.10
2018-12-13T06:23:25.793Z,1.10
2018-12-13T06:25:53.929Z,1.20
2018-12-13T06:28:22.070Z,1.20
2018-12-13T06:30:50.214Z,1.20
2018-12-13T06:33:24.688Z,1.30
2018-12-13T06:35:48.607Z,1.30
2018-12-13T06:38:16.751Z,1.40
2018-12-13T06:40:44.890Z,1.30
2018-12-13T06:43:13.031Z,1.30
2018-12-13T06:45:41.176Z,1.40
2018-12-13T06:48:09.322Z,1.40
2018-12-13T06:50:37.451Z,1.40
2018-12-13T06:53:05.606Z,1.50
2018-12-13T06:55:33.726Z,1.50
2018-12-13T06:58:01.867Z,1.50
2018-12-13T07:00:30.033Z,1.50
2018-12-13T07:02:58.144Z,1.50
2018-12-13T07:05:26.316Z,1.50
2018-12-13T07:07:54.425Z,1.50
2018-12-13T07:10:22.684Z,1.50
2018-12-13T07:12:50.795Z,1.50
2018-12-13T07:15:18.916Z,1.50
2018-12-13T07:17:48.228Z,1.50
2018-12-13T07:20:16.645Z,1.50
2018-12-13T07:22:44.778Z,1.50
2018-12-13T07:25:12.895Z,1.50
2018-12-13T07:27:41.419Z,1.50
2018-12-13T07:30:09.766Z,1.50
2018-12-13T07:32:37.954Z,1.50
2018-12-13T07:35:06.654Z,1.60
2018-12-13T07:37:34.768Z,1.60
2018-12-13T07:40:03.311Z,1.60
2018-12-13T07:42:31.431Z,1.60
2018-12-13T07:44:59.570Z,1.70
2018-12-13T07:47:27.692Z,1.70
2018-12-13T07:49:55.838Z,1.70
2018-12-13T07:52:23.955Z,1.70
2018-12-13T07:54:52.107Z,1.70
2018-12-13T07:57:20.224Z,1.70
2018-12-13T07:59:48.334Z,1.70
2018-12-13T08:02:16.476Z,1.80
2018-12-13T08:04:44.649Z,1.80
2018-12-13T08:07:12.802Z,1.80
2018-12-13T08:09:40.916Z,1.80
2018-12-13T08:12:09.058Z,1.90
2018-12-13T08:14:37.209Z,1.90
2018-12-13T08:17:05.434Z,1.90
2018-12-13T08:19:33.681Z,1.90
2018-12-13T08:22:01.800Z,1.90
2018-12-13T08:24:29.899Z,1.90
2018-12-13T08:26:58.058Z,1.90
2018-12-13T08:29:26.442Z,2.00
2018-12-13T08:31:54.573Z,2.00
2018-12-13T08:34:22.726Z,2.00
2018-12-13T08:36:50.886Z,2.00
2018-12-13T08:39:19.049Z,2.00
2018-12-13T08:41:47.195Z,2.10
2018-12-13T08:44:15.359Z,2.10
2018-12-13T08:46:43.534Z,2.20
2018-12-13T08:49:11.680Z,2.20
2018-12-13T08:51:39.867Z,2.20
2018-12-13T08:54:09.530Z,2.20
2018-12-13T08:56:37.756Z,2.20
2018-12-13T08:59:05.967Z,2.20
2018-12-13T09:01:34.097Z,2.20
2018-12-13T09:04:02.243Z,2.30
2018-12-13T09:06:30.365Z,2.30
2018-12-13T09:08:58.483Z,2.30
2018-12-13T09:11:26.575Z,2.40
2018-12-13T09:13:54.697Z,2.40
2018-12-13T09:16:22.802Z,2.50
2018-12-13T09:18:50.958Z,2.60
2018-12-13T09:21:19.084Z,2.50
2018-12-13T09:23:47.188Z,2.60
2018-12-13T09:26:15.316Z,2.60
2018-12-13T09:28:43.426Z,2.60
2018-12-13T09:31:11.654Z,2.70
2018-12-13T09:33:39.771Z,2.70
2018-12-13T09:36:07.931Z,2.70
2018-12-13T09:38:39.841Z,2.70
2018-12-13T09:41:06.246Z,2.80
2018-12-13T09:43:34.463Z,2.80
2018-12-13T09:46:02.581Z,2.80
2018-12-13T09:48:30.701Z,2.90
2018-12-13T09:50:58.846Z,3.00
2018-12-13T09:53:26.974Z,3.00
2018-12-13T09:55:55.094Z,3.00
2018-12-13T09:58:23.279Z,3.00
2018-12-13T10:00:51.395Z,2.90
2018-12-13T10:03:19.506Z,2.90
2018-12-13T10:05:47.644Z,2.90
2018-12-13T10:08:15.784Z,2.90
2018-12-13T10:10:43.920Z,2.90
2018-12-13T10:13:12.091Z,2.90
2018-12-13T10:15:40.201Z,2.90
2018-12-13T10:18:08.346Z,3.00
2018-12-13T10:20:36.459Z,3.00
2018-12-13T10:23:04.581Z,3.10
2018-12-13T10:25:32.844Z,3.10
2018-12-13T10:28:01.035Z,3.10
2018-12-13T10:30:29.137Z,3.10
2018-12-13T10:32:57.258Z,3.00
2018-12-13T10:35:25.490Z,3.10
2018-12-13T10:37:53.638Z,3.10
2018-12-13T10:40:21.777Z,3.10
2018-12-13T10:42:49.928Z,3.20
2018-12-13T10:45:18.035Z,3.20
2018-12-13T10:47:46.162Z,3.20
2018-12-13T10:50:14.298Z,3.20
2018-12-13T10:52:42.423Z,3.20
2018-12-13T10:55:10.525Z,3.20
2018-12-13T10:57:38.731Z,3.20
2018-12-13T11:00:09.117Z,3.30
2018-12-13T11:02:52.606Z,3.30
2018-12-13T11:05:21.429Z,3.40
2018-12-13T11:07:50.115Z,3.50
2018-12-13T11:10:25.361Z,3.50
2018-12-13T11:12:52.576Z,3.50
2018-12-13T11:15:20.870Z,3.50
2018-12-13T11:17:48.978Z,3.60
2018-12-13T11:20:17.097Z,3.50
2018-12-13T11:22:45.234Z,3.60
2018-12-13T11:25:13.371Z,3.60
2018-12-13T11:30:47.424Z,3.70
2018-12-13T11:33:15.742Z,3.60
2018-12-13T11:35:43.832Z,3.60
2018-12-13T11:38:11.948Z,3.60
2018-12-13T11:40:40.054Z,3.60
2018-12-13T11:43:08.214Z,3.60
2018-12-13T11:45:36.356Z,3.60
2018-12-13T11:48:04.477Z,3.60
2018-12-13T11:50:32.591Z,3.60
2018-12-13T11:53:00.746Z,3.60
2018-12-13T11:55:31.477Z,3.60
2018-12-13T11:57:59.828Z,3.70
2018-12-13T12:00:27.915Z,3.60
2018-12-13T12:02:56.098Z,3.60
2018-12-13T12:05:24.329Z,3.60
2018-12-13T12:07:52.471Z,3.70
2018-12-13T12:10:20.795Z,3.60
2018-12-13T12:12:48.963Z,3.60
2018-12-13T12:15:17.118Z,3.60
2018-12-13T12:17:45.221Z,3.60
2018-12-13T12:20:13.434Z,3.70
2018-12-13T12:22:41.570Z,3.70
2018-12-13T12:25:09.806Z,3.60
2018-12-13T12:27:37.904Z,3.60
2018-12-13T12:30:06.631Z,3.50
2018-12-13T12:32:34.750Z,3.50
2018-12-13T12:35:03.017Z,3.40
2018-12-13T12:37:31.141Z,3.40
2018-12-13T12:39:59.252Z,3.40
2018-12-13T12:42:27.401Z,3.30
2018-12-13T12:44:55.519Z,3.30
2018-12-13T12:47:23.678Z,3.30
2018-12-13T12:49:51.808Z,3.30
2018-12-13T12:52:19.974Z,3.30
2018-12-13T12:54:48.093Z,3.20
2018-12-13T12:57:16.275Z,3.20
2018-12-13T12:59:44.389Z,3.20
2018-12-13T13:02:12.496Z,3.20
2018-12-13T13:04:40.654Z,3.20
2018-12-13T13:07:09.518Z,3.10
2018-12-13T13:09:37.664Z,3.10
2018-12-13T13:12:05.792Z,3.00
2018-12-13T13:14:33.909Z,3.00
2018-12-13T13:17:02.017Z,3.00
2018-12-13T13:19:30.283Z,3.10
2018-12-13T13:21:58.430Z,3.10
2018-12-13T13:24:26.566Z,3.10
2018-12-13T13:26:54.718Z,3.10
2018-12-13T13:29:22.852Z,3.20
2018-12-13T13:31:51.342Z,3.20
2018-12-13T13:34:19.735Z,3.20
2018-12-13T13:36:47.985Z,3.20
2018-12-13T13:39:16.144Z,3.30
2018-12-13T13:41:44.573Z,3.30
2018-12-13T13:44:13.303Z,3.20
2018-12-13T13:46:41.425Z,3.20
2018-12-13T13:49:09.848Z,3.30
2018-12-13T13:51:38.064Z,3.40
2018-12-13T13:54:06.265Z,3.40
2018-12-13T13:56:34.418Z,3.30
2018-12-13T13:59:02.926Z,3.30
2018-12-13T14:01:31.103Z,3.20
2018-12-13T14:03:59.599Z,3.20
2018-12-13T14:06:27.693Z,3.20
2018-12-13T14:08:56.089Z,3.10
2018-12-13T14:11:24.437Z,3.10
2018-12-13T14:13:52.896Z,3.10
2018-12-13T14:16:21.168Z,3.00
2018-12-13T14:18:49.309Z,3.00
2018-12-13T14:21:17.627Z,3.00
2018-12-13T14:23:45.809Z,3.00
2018-12-13T14:26:13.959Z,3.10
2018-12-13T14:28:42.099Z,3.10
2018-12-13T14:31:10.254Z,3.10
2018-12-13T14:33:38.692Z,3.00
2018-12-13T14:36:07.142Z,2.90
2018-12-13T14:38:35.877Z,2.90
2018-12-13T14:41:04.097Z,2.90
2018-12-13T14:43:32.612Z,2.90
2018-12-13T14:46:00.749Z,2.80
2018-12-13T14:48:29.239Z,2.80
2018-12-13T14:50:57.633Z,2.80
2018-12-13T14:53:25.793Z,2.80
2018-12-13T14:55:54.487Z,2.80
2018-12-13T14:58:22.906Z,2.80
2018-12-13T15:00:51.284Z,2.80
2018-12-13T15:03:19.631Z,2.70
2018-12-13T15:05:48.143Z,2.70
2018-12-13T15:08:16.549Z,2.70
2018-12-13T15:10:44.979Z,2.70
2018-12-13T15:13:13.361Z,2.60
2018-12-13T15:15:41.514Z,2.60
2018-12-13T15:18:09.699Z,2.60
2018-12-13T15:20:37.846Z,2.60
2018-12-13T15:23:06.379Z,2.60
2018-12-13T15:25:34.539Z,2.50
2018-12-13T15:28:02.818Z,2.50
2018-12-13T15:30:30.997Z,2.50
2018-12-13T15:32:59.111Z,2.40
2018-12-13T15:35:27.252Z,2.40
2018-12-13T15:37:55.413Z,2.40
2018-12-13T15:40:23.519Z,2.30
2018-12-13T15:42:52.261Z,2.40
2018-12-13T15:45:22.535Z,2.40
2018-12-13T15:47:50.697Z,2.40
2018-12-13T15:50:18.794Z,2.40
2018-12-13T15:52:46.914Z,2.30
2018-12-13T15:55:15.009Z,2.40
2018-12-13T15:57:43.174Z,2.40
2018-12-13T16:00:11.450Z,2.40
2018-12-13T16:02:39.559Z,2.40
2018-12-13T16:05:07.755Z,2.40
2018-12-13T16:07:35.878Z,2.40
2018-12-13T16:10:05.502Z,2.40
2018-12-13T16:12:33.730Z,2.30
2018-12-13T16:15:01.858Z,2.30
2018-12-13T16:17:30.069Z,2.40
2018-12-13T16:19:58.225Z,2.40
2018-12-13T16:22:26.401Z,2.40
2018-12-13T16:24:54.499Z,2.40
2018-12-13T16:27:22.734Z,2.40
2018-12-13T16:29:51.450Z,2.40
2018-12-13T16:32:19.603Z,2.50
2018-12-13T16:34:47.685Z,2.40
2018-12-13T16:37:15.787Z,2.40
2018-12-13T16:39:43.888Z,2.40
2018-12-13T16:42:12.042Z,2.40
2018-12-13T16:44:40.284Z,2.40
2018-12-13T16:47:09.022Z,2.40
2018-12-13T16:49:37.154Z,2.30
2018-12-13T16:52:05.278Z,2.30
2018-12-13T16:54:33.406Z,2.40
2018-12-13T16:57:01.525Z,2.50
2018-12-13T16:59:29.673Z,2.50
2018-12-13T17:01:57.801Z,2.50
2018-12-13T17:04:25.962Z,2.40
2018-12-13T17:06:54.063Z,2.40
2018-12-13T17:09:22.170Z,2.30
2018-12-13T17:11:50.277Z,2.20
2018-12-13T17:14:18.414Z,2.20
2018-12-13T17:16:46.546Z,2.20
2018-12-13T17:19:14.765Z,2.20
2018-12-13T17:21:42.865Z,2.20
2018-12-13T17:24:11.002Z,2.20
2018-12-13T17:26:39.128Z,2.20
2018-12-13T17:29:07.252Z,2.10
2018-12-13T17:31:35.422Z,2.10
2018-12-13T17:34:03.537Z,2.10
2018-12-13T17:36:31.702Z,2.00
2018-12-13T17:38:59.833Z,2.00
2018-12-13T17:41:27.975Z,1.90
2018-12-13T17:43:56.091Z,1.90
2018-12-13T17:46:24.224Z,1.90
2018-12-13T17:48:52.390Z,1.90
2018-12-13T17:51:20.530Z,1.90
2018-12-13T17:53:48.686Z,1.90
2018-12-13T17:56:16.845Z,1.90
2018-12-13T17:58:44.982Z,2.00
2018-12-13T18:01:13.245Z,2.00
2018-12-13T18:03:41.444Z,2.00
2018-12-13T18:06:09.555Z,2.00
2018-12-13T18:08:37.660Z,2.00
2018-12-13T18:11:05.872Z,2.00
2018-12-13T18:13:36.417Z,2.00
2018-12-13T18:16:04.799Z,1.90
2018-12-13T18:18:32.969Z,2.00
2018-12-13T18:21:01.193Z,2.00
2018-12-13T18:23:29.382Z,2.10
2018-12-13T18:25:57.634Z,2.00
2018-12-13T18:28:25.757Z,2.10
2018-12-13T18:30:53.846Z,2.00
2018-12-13T18:33:21.981Z,2.00
2018-12-13T18:35:50.086Z,2.00
2018-12-13T18:38:18.513Z,2.00
2018-12-13T18:40:46.748Z,2.00
2018-12-13T18:43:14.849Z,2.10
2018-12-13T18:45:42.973Z,2.00
2018-12-13T18:48:11.277Z,2.00
2018-12-13T18:50:39.401Z,1.90
2018-12-13T18:53:07.879Z,1.90
2018-12-13T18:55:36.085Z,1.90
2018-12-13T18:58:04.237Z,1.90
2018-12-13T19:00:32.396Z,1.90
2018-12-13T19:03:02.689Z,1.90
2018-12-13T19:05:31.184Z,1.90
2018-12-13T19:07:59.570Z,1.90
2018-12-13T19:10:30.268Z,1.80
2018-12-13T19:12:58.694Z,1.90
2018-12-13T19:15:30.865Z,1.90
2018-12-13T19:17:59.550Z,1.90
2018-12-13T19:20:28.013Z,1.80
2018-12-13T19:22:56.485Z,1.90
2018-12-13T19:25:25.091Z,1.90
2018-12-13T19:27:53.525Z,1.90
2018-12-13T19:30:21.944Z,1.90
2018-12-13T19:32:50.086Z,2.00
2018-12-13T19:35:19.467Z,2.00
2018-12-13T19:37:52.287Z,2.00
2018-12-13T19:40:20.758Z,2.00
2018-12-13T19:42:48.861Z,2.00
2018-12-13T19:45:20.757Z,2.00
2018-12-13T19:47:49.055Z,2.00
2018-12-13T19:50:17.183Z,2.10
2018-12-13T19:52:46.906Z,2.10
2018-12-13T19:55:20.196Z,2.10
2018-12-13T19:57:48.323Z,2.10
2018-12-13T20:00:16.798Z,2.10
2018-12-13T20:02:45.185Z,2.10
2018-12-13T20:05:13.672Z,2.10
2018-12-13T20:07:42.192Z,2.00
2018-12-13T20:10:10.316Z,2.00
2018-12-13T20:12:38.420Z,2.00
2018-12-13T20:15:10.633Z,1.90
2018-12-13T20:17:42.884Z,1.90
2018-12-13T20:20:15.829Z,1.90
2018-12-13T20:22:47.794Z,1.90
2018-12-13T20:25:19.062Z,1.90
2018-12-13T20:27:51.897Z,1.90
2018-12-13T20:30:25.184Z,1.90
2018-12-13T20:32:54.547Z,1.80
2018-12-13T20:35:26.268Z,1.90
2018-12-13T20:37:59.611Z,1.90
2018-12-13T20:40:29.906Z,1.90
2018-12-13T20:42:58.069Z,1.90
2018-12-13T20:45:26.182Z,1.90
2018-12-13T20:47:54.332Z,1.90
2018-12-13T20:50:24.659Z,2.00
2018-12-13T20:52:57.704Z,2.00
2018-12-13T20:55:30.891Z,2.10
2018-12-13T20:58:02.499Z,2.10
2018-12-13T21:00:35.285Z,2.00
2018-12-13T21:03:07.061Z,2.00
2018-12-13T21:05:38.592Z,2.00
2018-12-13T21:08:09.678Z,2.00
2018-12-13T21:10:40.455Z,2.00
2018-12-13T21:13:08.586Z,2.00
2018-12-13T21:15:40.616Z,2.10
2018-12-13T21:18:12.951Z,2.10
2018-12-13T21:20:45.935Z,2.10
2018-12-13T21:23:17.512Z,2.10
2018-12-13T21:25:45.679Z,2.20
2018-12-13T21:28:16.101Z,2.20
2018-12-13T21:30:44.319Z,2.20
2018-12-13T21:33:12.552Z,2.20
2018-12-13T21:35:40.726Z,2.20
2018-12-13T21:38:08.871Z,2.10
2018-12-13T21:40:37.146Z,2.10
2018-12-13T21:43:05.315Z,2.10
2018-12-13T21:45:33.457Z,2.10
2018-12-13T21:48:01.614Z,2.10
2018-12-13T21:50:29.966Z,2.10
2018-12-13T21:52:58.100Z,2.10
2018-12-13T21:55:26.251Z,2.10
2018-12-13T21:57:54.416Z,2.10
2018-12-13T22:00:22.554Z,2.10
2018-12-13T22:02:50.661Z,2.10
2018-12-13T22:05:18.826Z,2.10
2018-12-13T22:07:46.954Z,2.00
2018-12-13T22:10:15.093Z,2.00
2018-12-13T22:12:43.258Z,2.00
2018-12-13T22:15:13.189Z,2.10
2018-12-13T22:17:41.505Z,2.00
2018-12-13T22:20:09.712Z,2.00
2018-12-13T22:22:38.026Z,2.00
2018-12-13T22:25:06.563Z,2.00
2018-12-13T22:27:34.729Z,1.90
2018-12-13T22:30:03.851Z,1.90
2018-12-13T22:32:32.095Z,1.90
2018-12-13T22:35:00.374Z,1.90
2018-12-13T22:37:28.637Z,2.00
2018-12-13T22:39:56.848Z,2.00
2018-12-13T22:42:25.010Z,2.00
2018-12-13T22:44:53.126Z,2.10
2018-12-13T22:47:21.262Z,2.10
2018-12-13T22:49:49.397Z,2.10
2018-12-13T22:52:17.589Z,2.20
2018-12-13T22:54:45.702Z,2.20
2018-12-13T22:57:13.818Z,2.20
2018-12-13T22:59:41.952Z,2.20
2018-12-13T23:02:10.164Z,2.20
2018-12-13T23:04:38.292Z,2.20
2018-12-13T23:07:06.409Z,2.10
2018-12-13T23:09:34.546Z,2.20
2018-12-13T23:12:02.682Z,2.10
2018-12-13T23:14:30.843Z,2.20
2018-12-13T23:16:59.047Z,2.10
2018-12-13T23:19:27.186Z,2.10
2018-12-13T23:21:55.317Z,2.10
2018-12-13T23:24:23.481Z,2.10
2018-12-13T23:26:51.592Z,2.20
2018-12-13T23:29:19.710Z,2.20
2018-12-13T23:31:47.850Z,2.20
2018-12-13T23:34:15.956Z,2.20
2018-12-13T23:36:44.095Z,2.20
2018-12-13T23:39:12.241Z,2.10
2018-12-13T23:41:40.409Z,2.10
2018-12-13T23:44:08.544Z,2.10
2018-12-13T23:46:36.677Z,2.10
2018-12-13T23:49:04.809Z,2.00
2018-12-13T23:51:32.949Z,2.00
2018-12-13T23:54:01.109Z,2.00
2018-12-13T23:56:29.246Z,2.00
2018-12-13T23:58:57.576Z,2.00
